sensor_id;sensor_type;location;lat;lon;timestamp;P1;durP1;ratioP1;P2;durP2;ratioP2
52210;SDS011;38179;52.756;6.906;2023-06-22T00:02:15;42.97;;;38.78;;
52210;SDS011;38179;52.756;6.906;2023-06-22T00:04:42;41.58;;;37.88;;
52210;SDS011;38179;52.756;6.906;2023-06-22T00:07:08;41.55;;;37.45;;
52210;SDS011;38179;52.756;6.906;2023-06-22T00:09:34;41.63;;;37.60;;
52210;SDS011;38179;52.756;6.906;2023-06-22T00:12:00;40.35;;;36.72;;
52210;SDS011;38179;52.756;6.906;2023-06-22T00:14:26;40.15;;;36.35;;
52210;SDS011;38179;52.756;6.906;2023-06-22T00:16:52;41.22;;;37.35;;
52210;SDS011;38179;52.756;6.906;2023-06-22T00:19:22;41.78;;;38.00;;
52210;SDS011;38179;52.756;6.906;2023-06-22T00:21:48;43.53;;;39.30;;
52210;SDS011;38179;52.756;6.906;2023-06-22T00:24:20;43.72;;;39.20;;
52210;SDS011;38179;52.756;6.906;2023-06-22T00:26:49;43.28;;;39.08;;
52210;SDS011;38179;52.756;6.906;2023-06-22T00:29:16;40.97;;;37.00;;
52210;SDS011;38179;52.756;6.906;2023-06-22T00:31:42;42.42;;;38.20;;
52210;SDS011;38179;52.756;6.906;2023-06-22T00:34:08;43.00;;;38.92;;
52210;SDS011;38179;52.756;6.906;2023-06-22T00:36:34;43.50;;;39.30;;
52210;SDS011;38179;52.756;6.906;2023-06-22T00:39:01;43.33;;;39.53;;
52210;SDS011;38179;52.756;6.906;2023-06-22T00:41:27;43.10;;;38.88;;
52210;SDS011;38179;52.756;6.906;2023-06-22T00:46:21;43.78;;;39.65;;
52210;SDS011;38179;52.756;6.906;2023-06-22T00:48:48;44.17;;;40.03;;
52210;SDS011;38179;52.756;6.906;2023-06-22T00:51:15;43.40;;;39.42;;
52210;SDS011;38179;52.756;6.906;2023-06-22T00:53:41;44.25;;;40.25;;
52210;SDS011;38179;52.756;6.906;2023-06-22T00:56:08;43.45;;;39.53;;
52210;SDS011;38179;52.756;6.906;2023-06-22T00:58:35;45.08;;;41.08;;
52210;SDS011;38179;52.756;6.906;2023-06-22T01:01:01;42.75;;;38.92;;
52210;SDS011;38179;52.756;6.906;2023-06-22T01:03:27;42.42;;;38.50;;
52210;SDS011;38179;52.756;6.906;2023-06-22T01:05:54;45.05;;;40.72;;
52210;SDS011;38179;52.756;6.906;2023-06-22T01:10:58;45.47;;;41.25;;
52210;SDS011;38179;52.756;6.906;2023-06-22T01:13:35;44.13;;;40.03;;
52210;SDS011;38179;52.756;6.906;2023-06-22T01:18:39;47.38;;;42.97;;
52210;SDS011;38179;52.756;6.906;2023-06-22T01:21:07;46.60;;;42.30;;
52210;SDS011;38179;52.756;6.906;2023-06-22T01:26:37;46.67;;;42.22;;
52210;SDS011;38179;52.756;6.906;2023-06-22T01:29:21;48.13;;;43.60;;
52210;SDS011;38179;52.756;6.906;2023-06-22T01:31:49;48.90;;;44.40;;
52210;SDS011;38179;52.756;6.906;2023-06-22T01:34:17;48.95;;;44.25;;
52210;SDS011;38179;52.756;6.906;2023-06-22T01:36:43;48.35;;;43.75;;
52210;SDS011;38179;52.756;6.906;2023-06-22T01:39:11;47.97;;;43.30;;
52210;SDS011;38179;52.756;6.906;2023-06-22T01:41:38;48.67;;;44.00;;
52210;SDS011;38179;52.756;6.906;2023-06-22T01:44:05;50.67;;;45.38;;
52210;SDS011;38179;52.756;6.906;2023-06-22T01:46:33;50.80;;;45.83;;
52210;SDS011;38179;52.756;6.906;2023-06-22T01:49:01;50.42;;;45.63;;
52210;SDS011;38179;52.756;6.906;2023-06-22T01:51:28;50.58;;;45.60;;
52210;SDS011;38179;52.756;6.906;2023-06-22T01:53:54;49.85;;;44.75;;
52210;SDS011;38179;52.756;6.906;2023-06-22T01:56:20;49.83;;;45.00;;
52210;SDS011;38179;52.756;6.906;2023-06-22T01:59:28;51.42;;;46.28;;
52210;SDS011;38179;52.756;6.906;2023-06-22T02:02:02;51.28;;;46.33;;
52210;SDS011;38179;52.756;6.906;2023-06-22T02:04:43;52.28;;;47.20;;
52210;SDS011;38179;52.756;6.906;2023-06-22T02:07:23;52.97;;;47.83;;
52210;SDS011;38179;52.756;6.906;2023-06-22T02:09:58;52.95;;;47.92;;
52210;SDS011;38179;52.756;6.906;2023-06-22T02:12:26;53.20;;;47.90;;
52210;SDS011;38179;52.756;6.906;2023-06-22T02:14:54;49.88;;;45.10;;
52210;SDS011;38179;52.756;6.906;2023-06-22T02:17:21;49.97;;;45.25;;
52210;SDS011;38179;52.756;6.906;2023-06-22T02:19:48;52.67;;;47.33;;
52210;SDS011;38179;52.756;6.906;2023-06-22T02:22:14;51.15;;;46.03;;
52210;SDS011;38179;52.756;6.906;2023-06-22T02:24:40;50.35;;;45.38;;
52210;SDS011;38179;52.756;6.906;2023-06-22T02:27:06;52.60;;;47.40;;
52210;SDS011;38179;52.756;6.906;2023-06-22T02:29:32;52.67;;;47.58;;
52210;SDS011;38179;52.756;6.906;2023-06-22T02:31:58;53.05;;;47.95;;
52210;SDS011;38179;52.756;6.906;2023-06-22T02:34:24;52.22;;;47.17;;
52210;SDS011;38179;52.756;6.906;2023-06-22T02:36:50;52.92;;;47.72;;
52210;SDS011;38179;52.756;6.906;2023-06-22T02:39:23;52.85;;;47.85;;
52210;SDS011;38179;52.756;6.906;2023-06-22T02:41:50;53.45;;;48.42;;
52210;SDS011;38179;52.756;6.906;2023-06-22T02:44:17;54.40;;;49.30;;
52210;SDS011;38179;52.756;6.906;2023-06-22T02:46:43;56.88;;;51.22;;
52210;SDS011;38179;52.756;6.906;2023-06-22T02:49:09;52.50;;;47.58;;
52210;SDS011;38179;52.756;6.906;2023-06-22T02:51:37;54.42;;;49.17;;
52210;SDS011;38179;52.756;6.906;2023-06-22T02:56:30;53.58;;;48.53;;
52210;SDS011;38179;52.756;6.906;2023-06-22T02:58:57;57.38;;;51.90;;
52210;SDS011;38179;52.756;6.906;2023-06-22T03:01:29;57.70;;;51.53;;
52210;SDS011;38179;52.756;6.906;2023-06-22T03:04:05;55.53;;;50.10;;
52210;SDS011;38179;52.756;6.906;2023-06-22T03:06:34;55.33;;;49.85;;
52210;SDS011;38179;52.756;6.906;2023-06-22T03:09:04;55.08;;;49.85;;
52210;SDS011;38179;52.756;6.906;2023-06-22T03:11:31;55.60;;;50.33;;
52210;SDS011;38179;52.756;6.906;2023-06-22T03:13:57;54.78;;;49.40;;
52210;SDS011;38179;52.756;6.906;2023-06-22T03:16:23;56.20;;;50.83;;
52210;SDS011;38179;52.756;6.906;2023-06-22T03:18:49;56.92;;;51.28;;
52210;SDS011;38179;52.756;6.906;2023-06-22T03:21:15;57.95;;;52.10;;
52210;SDS011;38179;52.756;6.906;2023-06-22T03:23:42;55.95;;;50.72;;
52210;SDS011;38179;52.756;6.906;2023-06-22T03:26:08;52.13;;;47.08;;
52210;SDS011;38179;52.756;6.906;2023-06-22T03:28:36;55.85;;;50.65;;
52210;SDS011;38179;52.756;6.906;2023-06-22T03:31:03;54.42;;;49.13;;
52210;SDS011;38179;52.756;6.906;2023-06-22T03:33:29;54.40;;;49.00;;
52210;SDS011;38179;52.756;6.906;2023-06-22T03:35:55;53.97;;;48.88;;
52210;SDS011;38179;52.756;6.906;2023-06-22T03:38:21;56.05;;;50.72;;
52210;SDS011;38179;52.756;6.906;2023-06-22T03:40:47;55.83;;;50.53;;
52210;SDS011;38179;52.756;6.906;2023-06-22T03:43:12;59.08;;;53.45;;
52210;SDS011;38179;52.756;6.906;2023-06-22T03:45:38;57.72;;;52.13;;
52210;SDS011;38179;52.756;6.906;2023-06-22T03:48:05;58.33;;;52.40;;
52210;SDS011;38179;52.756;6.906;2023-06-22T03:50:31;58.30;;;52.53;;
52210;SDS011;38179;52.756;6.906;2023-06-22T03:52:57;60.85;;;54.90;;
52210;SDS011;38179;52.756;6.906;2023-06-22T03:55:23;56.50;;;51.03;;
52210;SDS011;38179;52.756;6.906;2023-06-22T03:57:49;58.03;;;52.35;;
52210;SDS011;38179;52.756;6.906;2023-06-22T04:00:15;60.90;;;54.78;;
52210;SDS011;38179;52.756;6.906;2023-06-22T04:02:41;56.80;;;50.97;;
52210;SDS011;38179;52.756;6.906;2023-06-22T04:05:08;59.35;;;53.50;;
52210;SDS011;38179;52.756;6.906;2023-06-22T04:07:34;57.35;;;51.75;;
52210;SDS011;38179;52.756;6.906;2023-06-22T04:10:03;58.65;;;52.78;;
52210;SDS011;38179;52.756;6.906;2023-06-22T04:12:29;56.60;;;50.80;;
52210;SDS011;38179;52.756;6.906;2023-06-22T04:14:55;57.08;;;51.25;;
52210;SDS011;38179;52.756;6.906;2023-06-22T04:17:21;58.97;;;53.30;;
52210;SDS011;38179;52.756;6.906;2023-06-22T04:19:50;54.20;;;49.00;;
52210;SDS011;38179;52.756;6.906;2023-06-22T04:22:16;55.50;;;49.90;;
52210;SDS011;38179;52.756;6.906;2023-06-22T04:24:42;58.42;;;52.50;;
52210;SDS011;38179;52.756;6.906;2023-06-22T04:27:09;59.17;;;53.38;;
52210;SDS011;38179;52.756;6.906;2023-06-22T04:29:35;55.40;;;50.15;;
52210;SDS011;38179;52.756;6.906;2023-06-22T04:32:01;58.63;;;52.55;;
52210;SDS011;38179;52.756;6.906;2023-06-22T04:34:30;58.30;;;52.72;;
52210;SDS011;38179;52.756;6.906;2023-06-22T04:36:56;58.15;;;52.28;;
52210;SDS011;38179;52.756;6.906;2023-06-22T04:39:22;57.78;;;51.75;;
52210;SDS011;38179;52.756;6.906;2023-06-22T04:41:49;57.65;;;52.00;;
52210;SDS011;38179;52.756;6.906;2023-06-22T04:44:19;56.70;;;51.00;;
52210;SDS011;38179;52.756;6.906;2023-06-22T04:46:57;59.17;;;53.47;;
52210;SDS011;38179;52.756;6.906;2023-06-22T04:49:29;59.63;;;53.63;;
52210;SDS011;38179;52.756;6.906;2023-06-22T04:51:59;55.40;;;49.92;;
52210;SDS011;38179;52.756;6.906;2023-06-22T04:54:25;57.10;;;51.35;;
52210;SDS011;38179;52.756;6.906;2023-06-22T04:56:51;59.03;;;52.85;;
52210;SDS011;38179;52.756;6.906;2023-06-22T04:59:24;59.20;;;53.30;;
52210;SDS011;38179;52.756;6.906;2023-06-22T05:01:56;56.45;;;50.58;;
52210;SDS011;38179;52.756;6.906;2023-06-22T05:04:23;54.70;;;49.17;;
52210;SDS011;38179;52.756;6.906;2023-06-22T05:06:50;57.15;;;51.47;;
52210;SDS011;38179;52.756;6.906;2023-06-22T05:09:17;51.28;;;46.15;;
52210;SDS011;38179;52.756;6.906;2023-06-22T05:11:44;52.95;;;47.58;;
52210;SDS011;38179;52.756;6.906;2023-06-22T05:14:10;49.95;;;44.75;;
52210;SDS011;38179;52.756;6.906;2023-06-22T05:16:36;52.80;;;47.65;;
52210;SDS011;38179;52.756;6.906;2023-06-22T05:19:03;52.13;;;46.92;;
52210;SDS011;38179;52.756;6.906;2023-06-22T05:21:29;51.95;;;47.03;;
52210;SDS011;38179;52.756;6.906;2023-06-22T05:23:55;50.17;;;45.45;;
52210;SDS011;38179;52.756;6.906;2023-06-22T05:26:27;54.60;;;49.08;;
52210;SDS011;38179;52.756;6.906;2023-06-22T05:28:53;49.80;;;44.90;;
52210;SDS011;38179;52.756;6.906;2023-06-22T05:31:19;48.17;;;43.38;;
52210;SDS011;38179;52.756;6.906;2023-06-22T05:33:45;46.80;;;42.40;;
52210;SDS011;38179;52.756;6.906;2023-06-22T05:36:12;46.88;;;42.38;;
52210;SDS011;38179;52.756;6.906;2023-06-22T05:38:38;45.05;;;40.78;;
52210;SDS011;38179;52.756;6.906;2023-06-22T05:41:05;43.85;;;39.75;;
52210;SDS011;38179;52.756;6.906;2023-06-22T05:43:31;46.47;;;41.95;;
52210;SDS011;38179;52.756;6.906;2023-06-22T05:45:57;46.67;;;41.88;;
52210;SDS011;38179;52.756;6.906;2023-06-22T05:48:24;44.08;;;39.85;;
52210;SDS011;38179;52.756;6.906;2023-06-22T05:50:50;43.95;;;39.65;;
52210;SDS011;38179;52.756;6.906;2023-06-22T05:53:16;44.00;;;39.55;;
52210;SDS011;38179;52.756;6.906;2023-06-22T05:55:42;44.55;;;40.50;;
52210;SDS011;38179;52.756;6.906;2023-06-22T05:58:08;42.88;;;38.60;;
52210;SDS011;38179;52.756;6.906;2023-06-22T06:00:34;42.95;;;39.00;;
52210;SDS011;38179;52.756;6.906;2023-06-22T06:03:00;41.75;;;37.67;;
52210;SDS011;38179;52.756;6.906;2023-06-22T06:05:30;42.38;;;38.47;;
52210;SDS011;38179;52.756;6.906;2023-06-22T06:07:56;42.20;;;38.17;;
52210;SDS011;38179;52.756;6.906;2023-06-22T06:10:22;39.92;;;36.22;;
52210;SDS011;38179;52.756;6.906;2023-06-22T06:12:48;40.67;;;36.88;;
52210;SDS011;38179;52.756;6.906;2023-06-22T06:15:14;41.17;;;37.38;;
52210;SDS011;38179;52.756;6.906;2023-06-22T06:17:47;39.95;;;36.30;;
52210;SDS011;38179;52.756;6.906;2023-06-22T06:20:14;39.15;;;35.38;;
52210;SDS011;38179;52.756;6.906;2023-06-22T06:22:40;39.90;;;36.20;;
52210;SDS011;38179;52.756;6.906;2023-06-22T06:25:08;41.53;;;37.67;;
52210;SDS011;38179;52.756;6.906;2023-06-22T06:27:34;41.22;;;37.15;;
52210;SDS011;38179;52.756;6.906;2023-06-22T06:30:00;39.47;;;35.78;;
52210;SDS011;38179;52.756;6.906;2023-06-22T06:32:27;39.55;;;35.88;;
52210;SDS011;38179;52.756;6.906;2023-06-22T06:34:52;40.88;;;37.08;;
52210;SDS011;38179;52.756;6.906;2023-06-22T06:37:18;37.67;;;34.30;;
52210;SDS011;38179;52.756;6.906;2023-06-22T06:39:44;39.72;;;36.10;;
52210;SDS011;38179;52.756;6.906;2023-06-22T06:42:10;39.45;;;35.83;;
52210;SDS011;38179;52.756;6.906;2023-06-22T06:44:36;39.42;;;35.90;;
52210;SDS011;38179;52.756;6.906;2023-06-22T06:47:03;40.38;;;36.67;;
52210;SDS011;38179;52.756;6.906;2023-06-22T06:49:29;39.78;;;36.08;;
52210;SDS011;38179;52.756;6.906;2023-06-22T06:51:55;39.90;;;36.33;;
52210;SDS011;38179;52.756;6.906;2023-06-22T06:54:21;38.50;;;34.90;;
52210;SDS011;38179;52.756;6.906;2023-06-22T06:56:47;40.53;;;36.72;;
52210;SDS011;38179;52.756;6.906;2023-06-22T06:59:14;39.00;;;35.17;;
52210;SDS011;38179;52.756;6.906;2023-06-22T07:01:42;39.22;;;35.85;;
52210;SDS011;38179;52.756;6.906;2023-06-22T07:04:09;39.00;;;35.03;;
52210;SDS011;38179;52.756;6.906;2023-06-22T07:06:36;39.22;;;34.97;;
52210;SDS011;38179;52.756;6.906;2023-06-22T07:09:02;37.20;;;33.92;;
52210;SDS011;38179;52.756;6.906;2023-06-22T07:11:28;38.40;;;34.92;;
52210;SDS011;38179;52.756;6.906;2023-06-22T07:13:54;38.17;;;34.78;;
52210;SDS011;38179;52.756;6.906;2023-06-22T07:16:20;38.63;;;35.22;;
52210;SDS011;38179;52.756;6.906;2023-06-22T07:18:46;38.92;;;34.88;;
52210;SDS011;38179;52.756;6.906;2023-06-22T07:21:12;36.33;;;32.92;;
52210;SDS011;38179;52.756;6.906;2023-06-22T07:23:38;36.33;;;33.03;;
52210;SDS011;38179;52.756;6.906;2023-06-22T07:26:03;36.25;;;32.83;;
52210;SDS011;38179;52.756;6.906;2023-06-22T07:28:31;37.03;;;33.72;;
52210;SDS011;38179;52.756;6.906;2023-06-22T07:31:02;34.78;;;31.67;;
52210;SDS011;38179;52.756;6.906;2023-06-22T07:33:29;36.20;;;32.92;;
52210;SDS011;38179;52.756;6.906;2023-06-22T07:35:55;31.60;;;28.90;;
52210;SDS011;38179;52.756;6.906;2023-06-22T07:38:20;32.47;;;29.70;;
52210;SDS011;38179;52.756;6.906;2023-06-22T07:40:47;31.73;;;28.83;;
52210;SDS011;38179;52.756;6.906;2023-06-22T07:43:13;31.75;;;28.95;;
52210;SDS011;38179;52.756;6.906;2023-06-22T07:45:38;30.13;;;27.63;;
52210;SDS011;38179;52.756;6.906;2023-06-22T07:48:05;31.02;;;28.27;;
52210;SDS011;38179;52.756;6.906;2023-06-22T07:50:32;30.95;;;28.35;;
52210;SDS011;38179;52.756;6.906;2023-06-22T07:52:58;30.38;;;27.83;;
52210;SDS011;38179;52.756;6.906;2023-06-22T07:55:23;30.58;;;27.98;;
52210;SDS011;38179;52.756;6.906;2023-06-22T07:57:49;30.48;;;27.67;;
52210;SDS011;38179;52.756;6.906;2023-06-22T08:00:17;31.02;;;28.42;;
52210;SDS011;38179;52.756;6.906;2023-06-22T08:02:44;29.67;;;27.15;;
52210;SDS011;38179;52.756;6.906;2023-06-22T08:05:11;29.97;;;27.47;;
52210;SDS011;38179;52.756;6.906;2023-06-22T08:07:38;29.00;;;26.52;;
52210;SDS011;38179;52.756;6.906;2023-06-22T08:10:04;30.52;;;27.98;;
52210;SDS011;38179;52.756;6.906;2023-06-22T08:12:31;30.38;;;27.52;;
52210;SDS011;38179;52.756;6.906;2023-06-22T08:14:57;30.00;;;27.30;;
52210;SDS011;38179;52.756;6.906;2023-06-22T08:17:23;29.73;;;27.25;;
52210;SDS011;38179;52.756;6.906;2023-06-22T08:19:50;30.48;;;27.88;;
52210;SDS011;38179;52.756;6.906;2023-06-22T08:22:16;29.92;;;27.25;;
52210;SDS011;38179;52.756;6.906;2023-06-22T08:24:42;28.83;;;26.13;;
52210;SDS011;38179;52.756;6.906;2023-06-22T08:27:09;29.80;;;27.10;;
52210;SDS011;38179;52.756;6.906;2023-06-22T08:29:38;29.42;;;26.92;;
52210;SDS011;38179;52.756;6.906;2023-06-22T08:32:04;29.98;;;27.35;;
52210;SDS011;38179;52.756;6.906;2023-06-22T08:34:31;30.00;;;27.13;;
52210;SDS011;38179;52.756;6.906;2023-06-22T08:36:57;29.05;;;26.50;;
52210;SDS011;38179;52.756;6.906;2023-06-22T08:39:23;28.95;;;26.55;;
52210;SDS011;38179;52.756;6.906;2023-06-22T08:41:49;28.13;;;25.77;;
52210;SDS011;38179;52.756;6.906;2023-06-22T08:44:16;29.38;;;26.95;;
52210;SDS011;38179;52.756;6.906;2023-06-22T08:46:43;29.55;;;27.17;;
52210;SDS011;38179;52.756;6.906;2023-06-22T08:49:09;30.10;;;27.58;;
52210;SDS011;38179;52.756;6.906;2023-06-22T08:51:35;29.83;;;27.42;;
52210;SDS011;38179;52.756;6.906;2023-06-22T08:54:01;28.20;;;25.90;;
52210;SDS011;38179;52.756;6.906;2023-06-22T08:56:27;28.73;;;26.33;;
52210;SDS011;38179;52.756;6.906;2023-06-22T08:58:53;29.77;;;27.08;;
52210;SDS011;38179;52.756;6.906;2023-06-22T09:01:19;27.88;;;25.58;;
52210;SDS011;38179;52.756;6.906;2023-06-22T09:03:45;29.42;;;26.73;;
52210;SDS011;38179;52.756;6.906;2023-06-22T09:06:22;29.52;;;26.67;;
52210;SDS011;38179;52.756;6.906;2023-06-22T09:08:48;28.73;;;26.10;;
52210;SDS011;38179;52.756;6.906;2023-06-22T09:11:14;29.45;;;26.85;;
52210;SDS011;38179;52.756;6.906;2023-06-22T09:13:40;28.52;;;26.23;;
52210;SDS011;38179;52.756;6.906;2023-06-22T09:16:06;29.60;;;27.20;;
52210;SDS011;38179;52.756;6.906;2023-06-22T09:18:33;27.85;;;25.63;;
52210;SDS011;38179;52.756;6.906;2023-06-22T09:20:59;28.27;;;25.88;;
52210;SDS011;38179;52.756;6.906;2023-06-22T09:23:25;28.33;;;25.70;;
52210;SDS011;38179;52.756;6.906;2023-06-22T09:25:51;29.25;;;26.90;;
52210;SDS011;38179;52.756;6.906;2023-06-22T09:28:17;28.65;;;26.30;;
52210;SDS011;38179;52.756;6.906;2023-06-22T09:30:43;28.20;;;25.90;;
52210;SDS011;38179;52.756;6.906;2023-06-22T09:33:09;29.38;;;26.98;;
52210;SDS011;38179;52.756;6.906;2023-06-22T09:35:35;29.13;;;26.73;;
52210;SDS011;38179;52.756;6.906;2023-06-22T09:38:01;27.00;;;24.77;;
52210;SDS011;38179;52.756;6.906;2023-06-22T09:40:27;27.38;;;24.98;;
52210;SDS011;38179;52.756;6.906;2023-06-22T09:42:53;28.02;;;25.83;;
52210;SDS011;38179;52.756;6.906;2023-06-22T09:45:19;29.30;;;26.58;;
52210;SDS011;38179;52.756;6.906;2023-06-22T09:47:45;27.55;;;25.25;;
52210;SDS011;38179;52.756;6.906;2023-06-22T09:50:11;29.10;;;26.50;;
52210;SDS011;38179;52.756;6.906;2023-06-22T09:52:37;28.55;;;26.17;;
52210;SDS011;38179;52.756;6.906;2023-06-22T09:55:03;29.27;;;26.55;;
52210;SDS011;38179;52.756;6.906;2023-06-22T09:57:29;28.70;;;26.25;;
52210;SDS011;38179;52.756;6.906;2023-06-22T09:59:55;27.63;;;25.42;;
52210;SDS011;38179;52.756;6.906;2023-06-22T10:02:21;27.52;;;25.33;;
52210;SDS011;38179;52.756;6.906;2023-06-22T10:04:47;28.15;;;25.95;;
52210;SDS011;38179;52.756;6.906;2023-06-22T10:07:14;28.38;;;25.88;;
52210;SDS011;38179;52.756;6.906;2023-06-22T10:09:40;27.55;;;25.35;;
52210;SDS011;38179;52.756;6.906;2023-06-22T10:12:06;27.33;;;25.23;;
52210;SDS011;38179;52.756;6.906;2023-06-22T10:14:32;28.27;;;25.85;;
52210;SDS011;38179;52.756;6.906;2023-06-22T10:16:58;26.92;;;24.80;;
52210;SDS011;38179;52.756;6.906;2023-06-22T10:19:24;26.95;;;24.65;;
52210;SDS011;38179;52.756;6.906;2023-06-22T10:21:50;26.85;;;24.67;;
52210;SDS011;38179;52.756;6.906;2023-06-22T10:24:16;26.52;;;24.48;;
52210;SDS011;38179;52.756;6.906;2023-06-22T10:26:42;27.23;;;25.02;;
52210;SDS011;38179;52.756;6.906;2023-06-22T10:29:07;28.05;;;25.65;;
52210;SDS011;38179;52.756;6.906;2023-06-22T10:31:33;27.38;;;25.25;;
52210;SDS011;38179;52.756;6.906;2023-06-22T10:33:59;27.10;;;24.92;;
52210;SDS011;38179;52.756;6.906;2023-06-22T10:36:25;27.73;;;25.52;;
52210;SDS011;38179;52.756;6.906;2023-06-22T10:38:51;27.85;;;25.20;;
52210;SDS011;38179;52.756;6.906;2023-06-22T10:41:18;28.08;;;25.73;;
52210;SDS011;38179;52.756;6.906;2023-06-22T10:43:44;26.88;;;24.83;;
52210;SDS011;38179;52.756;6.906;2023-06-22T10:46:10;26.60;;;24.52;;
52210;SDS011;38179;52.756;6.906;2023-06-22T10:48:36;27.60;;;25.40;;
52210;SDS011;38179;52.756;6.906;2023-06-22T10:51:02;27.33;;;25.13;;
52210;SDS011;38179;52.756;6.906;2023-06-22T10:53:28;26.88;;;24.63;;
52210;SDS011;38179;52.756;6.906;2023-06-22T10:55:54;26.23;;;24.25;;
52210;SDS011;38179;52.756;6.906;2023-06-22T10:58:19;25.75;;;23.75;;
52210;SDS011;38179;52.756;6.906;2023-06-22T11:00:45;26.88;;;24.45;;
52210;SDS011;38179;52.756;6.906;2023-06-22T11:03:11;27.55;;;25.30;;
52210;SDS011;38179;52.756;6.906;2023-06-22T11:05:39;27.97;;;25.60;;
52210;SDS011;38179;52.756;6.906;2023-06-22T11:08:05;27.55;;;25.35;;
52210;SDS011;38179;52.756;6.906;2023-06-22T11:10:31;26.38;;;24.42;;
52210;SDS011;38179;52.756;6.906;2023-06-22T11:12:57;26.80;;;24.70;;
52210;SDS011;38179;52.756;6.906;2023-06-22T11:15:23;28.48;;;25.98;;
52210;SDS011;38179;52.756;6.906;2023-06-22T11:17:50;27.20;;;25.00;;
52210;SDS011;38179;52.756;6.906;2023-06-22T11:20:16;27.30;;;25.00;;
52210;SDS011;38179;52.756;6.906;2023-06-22T11:22:41;25.60;;;23.70;;
52210;SDS011;38179;52.756;6.906;2023-06-22T11:25:08;25.50;;;23.25;;
52210;SDS011;38179;52.756;6.906;2023-06-22T11:27:34;26.83;;;24.70;;
52210;SDS011;38179;52.756;6.906;2023-06-22T11:30:00;25.33;;;23.42;;
52210;SDS011;38179;52.756;6.906;2023-06-22T11:32:29;26.50;;;24.08;;
52210;SDS011;38179;52.756;6.906;2023-06-22T11:34:55;24.83;;;22.83;;
52210;SDS011;38179;52.756;6.906;2023-06-22T11:37:21;24.48;;;22.67;;
52210;SDS011;38179;52.756;6.906;2023-06-22T11:39:47;24.77;;;22.98;;
52210;SDS011;38179;52.756;6.906;2023-06-22T11:42:13;25.13;;;22.95;;
52210;SDS011;38179;52.756;6.906;2023-06-22T11:44:39;45.25;;;23.88;;
52210;SDS011;38179;52.756;6.906;2023-06-22T11:47:05;69.75;;;25.33;;
52210;SDS011;38179;52.756;6.906;2023-06-22T11:49:31;146.30;;;29.08;;
52210;SDS011;38179;52.756;6.906;2023-06-22T11:51:57;24.23;;;22.40;;
52210;SDS011;38179;52.756;6.906;2023-06-22T11:54:24;54.00;;;24.63;;
52210;SDS011;38179;52.756;6.906;2023-06-22T11:56:51;25.65;;;23.13;;
52210;SDS011;38179;52.756;6.906;2023-06-22T11:59:17;24.67;;;22.48;;
52210;SDS011;38179;52.756;6.906;2023-06-22T12:01:43;24.30;;;22.38;;
52210;SDS011;38179;52.756;6.906;2023-06-22T12:04:09;25.80;;;23.48;;
52210;SDS011;38179;52.756;6.906;2023-06-22T12:06:37;24.13;;;22.30;;
52210;SDS011;38179;52.756;6.906;2023-06-22T12:09:06;25.42;;;23.40;;
52210;SDS011;38179;52.756;6.906;2023-06-22T12:11:32;24.13;;;22.33;;
52210;SDS011;38179;52.756;6.906;2023-06-22T12:13:58;23.92;;;21.80;;
52210;SDS011;38179;52.756;6.906;2023-06-22T12:16:27;23.35;;;21.65;;
52210;SDS011;38179;52.756;6.906;2023-06-22T12:18:53;24.63;;;22.42;;
52210;SDS011;38179;52.756;6.906;2023-06-22T12:21:19;24.83;;;22.98;;
52210;SDS011;38179;52.756;6.906;2023-06-22T12:23:45;24.63;;;22.73;;
52210;SDS011;38179;52.756;6.906;2023-06-22T12:26:11;24.40;;;22.45;;
52210;SDS011;38179;52.756;6.906;2023-06-22T12:28:37;23.65;;;21.90;;
52210;SDS011;38179;52.756;6.906;2023-06-22T12:31:03;24.85;;;22.67;;
52210;SDS011;38179;52.756;6.906;2023-06-22T12:33:29;24.00;;;21.98;;
52210;SDS011;38179;52.756;6.906;2023-06-22T12:35:56;24.50;;;22.60;;
52210;SDS011;38179;52.756;6.906;2023-06-22T12:38:22;24.90;;;22.70;;
52210;SDS011;38179;52.756;6.906;2023-06-22T12:40:50;24.27;;;22.35;;
52210;SDS011;38179;52.756;6.906;2023-06-22T12:43:16;24.25;;;22.35;;
52210;SDS011;38179;52.756;6.906;2023-06-22T12:45:42;24.60;;;22.70;;
52210;SDS011;38179;52.756;6.906;2023-06-22T12:48:08;23.73;;;21.85;;
52210;SDS011;38179;52.756;6.906;2023-06-22T12:50:34;24.45;;;22.35;;
52210;SDS011;38179;52.756;6.906;2023-06-22T12:53:00;24.17;;;22.08;;
52210;SDS011;38179;52.756;6.906;2023-06-22T12:55:28;24.45;;;22.65;;
52210;SDS011;38179;52.756;6.906;2023-06-22T12:57:54;23.95;;;22.00;;
52210;SDS011;38179;52.756;6.906;2023-06-22T13:00:20;24.52;;;22.55;;
52210;SDS011;38179;52.756;6.906;2023-06-22T13:02:46;25.00;;;23.00;;
52210;SDS011;38179;52.756;6.906;2023-06-22T13:05:11;24.38;;;22.52;;
52210;SDS011;38179;52.756;6.906;2023-06-22T13:07:37;24.23;;;22.33;;
52210;SDS011;38179;52.756;6.906;2023-06-22T13:10:03;23.88;;;22.10;;
52210;SDS011;38179;52.756;6.906;2023-06-22T13:12:30;25.85;;;22.73;;
52210;SDS011;38179;52.756;6.906;2023-06-22T13:14:56;23.95;;;22.05;;
52210;SDS011;38179;52.756;6.906;2023-06-22T13:17:22;24.73;;;22.65;;
52210;SDS011;38179;52.756;6.906;2023-06-22T13:19:47;24.58;;;22.67;;
52210;SDS011;38179;52.756;6.906;2023-06-22T13:22:26;24.40;;;22.48;;
52210;SDS011;38179;52.756;6.906;2023-06-22T13:24:56;24.27;;;22.17;;
52210;SDS011;38179;52.756;6.906;2023-06-22T13:27:23;23.50;;;21.70;;
52210;SDS011;38179;52.756;6.906;2023-06-22T13:29:50;24.13;;;22.23;;
52210;SDS011;38179;52.756;6.906;2023-06-22T13:32:16;23.80;;;22.00;;
52210;SDS011;38179;52.756;6.906;2023-06-22T13:34:42;23.95;;;22.15;;
52210;SDS011;38179;52.756;6.906;2023-06-22T13:37:08;24.27;;;22.38;;
52210;SDS011;38179;52.756;6.906;2023-06-22T13:39:34;23.75;;;22.05;;
52210;SDS011;38179;52.756;6.906;2023-06-22T13:42:00;23.83;;;21.90;;
52210;SDS011;38179;52.756;6.906;2023-06-22T13:44:26;23.42;;;21.70;;
52210;SDS011;38179;52.756;6.906;2023-06-22T13:46:57;23.75;;;21.75;;
52210;SDS011;38179;52.756;6.906;2023-06-22T13:49:23;23.83;;;21.92;;
52210;SDS011;38179;52.756;6.906;2023-06-22T13:51:49;24.73;;;22.63;;
52210;SDS011;38179;52.756;6.906;2023-06-22T13:54:15;23.45;;;21.70;;
52210;SDS011;38179;52.756;6.906;2023-06-22T13:56:41;24.23;;;22.15;;
52210;SDS011;38179;52.756;6.906;2023-06-22T13:59:07;23.45;;;21.60;;
52210;SDS011;38179;52.756;6.906;2023-06-22T14:01:35;23.58;;;21.67;;
52210;SDS011;38179;52.756;6.906;2023-06-22T14:04:04;24.02;;;22.13;;
52210;SDS011;38179;52.756;6.906;2023-06-22T14:06:29;23.90;;;21.98;;
52210;SDS011;38179;52.756;6.906;2023-06-22T14:08:55;23.80;;;21.63;;
52210;SDS011;38179;52.756;6.906;2023-06-22T14:11:21;24.55;;;22.48;;
52210;SDS011;38179;52.756;6.906;2023-06-22T14:13:47;25.27;;;23.13;;
52210;SDS011;38179;52.756;6.906;2023-06-22T14:16:13;23.90;;;21.90;;
52210;SDS011;38179;52.756;6.906;2023-06-22T14:18:39;24.52;;;22.65;;
52210;SDS011;38179;52.756;6.906;2023-06-22T14:21:05;24.88;;;22.88;;
52210;SDS011;38179;52.756;6.906;2023-06-22T14:23:31;23.88;;;22.08;;
52210;SDS011;38179;52.756;6.906;2023-06-22T14:25:57;24.95;;;22.85;;
52210;SDS011;38179;52.756;6.906;2023-06-22T14:28:23;24.00;;;22.00;;
52210;SDS011;38179;52.756;6.906;2023-06-22T14:30:48;24.85;;;22.95;;
52210;SDS011;38179;52.756;6.906;2023-06-22T14:33:14;24.60;;;22.50;;